createdAt,value
2017-12-27T00:00:08.943Z,3.80
2017-12-27T00:01:17.943Z,3.80
2017-12-27T00:02:26.086Z,3.70
2017-12-27T00:03:34.394Z,3.80
2017-12-27T00:04:43.231Z,3.80
2017-12-27T00:05:51.457Z,3.80
2017-12-27T00:06:59.799Z,3.90
2017-12-27T00:08:07.963Z,3.90
2017-12-27T00:10:53.650Z,3.90
2017-12-27T00:12:01.947Z,3.90
2017-12-27T00:13:10.071Z,4.00
2017-12-27T00:15:53.333Z,4.00
2017-12-27T00:17:01.423Z,4.00
2017-12-27T00:18:09.507Z,4.00
2017-12-27T00:19:17.839Z,4.00
2017-12-27T00:20:41.544Z,4.00
2017-12-27T00:21:50.522Z,4.00
2017-12-27T00:22:58.849Z,4.00
2017-12-27T00:24:07.039Z,4.00
2017-12-27T00:25:15.352Z,4.00
2017-12-27T00:26:25.193Z,4.00
2017-12-27T00:27:33.410Z,4.00
2017-12-27T00:28:41.588Z,4.10
2017-12-27T00:29:49.794Z,4.10
2017-12-27T00:30:52.903Z,4.00
2017-12-27T00:31:54.923Z,4.00
2017-12-27T00:32:57.424Z,4.10
2017-12-27T00:33:59.934Z,4.10
2017-12-27T00:35:02.432Z,4.10
2017-12-27T00:36:04.960Z,4.00
2017-12-27T00:37:08.279Z,4.00
2017-12-27T00:38:10.790Z,4.00
2017-12-27T00:39:13.289Z,4.10
2017-12-27T00:40:16.558Z,4.10
2017-12-27T00:41:19.072Z,4.00
2017-12-27T00:42:21.574Z,4.10
2017-12-27T00:43:24.068Z,4.10
2017-12-27T00:44:26.582Z,4.10
2017-12-27T00:45:29.069Z,4.10
2017-12-27T00:46:31.568Z,4.10
2017-12-27T00:47:34.060Z,4.10
2017-12-27T00:48:37.338Z,4.10
2017-12-27T00:49:39.873Z,4.10
2017-12-27T00:50:42.375Z,4.10
2017-12-27T00:51:44.878Z,4.10
2017-12-27T00:52:47.372Z,4.10
2017-12-27T00:53:49.848Z,4.20
2017-12-27T00:54:52.352Z,4.20
2017-12-27T00:55:54.868Z,4.20
2017-12-27T00:56:57.371Z,4.20
2017-12-27T00:57:59.856Z,4.20
2017-12-27T00:59:02.340Z,4.20
2017-12-27T01:00:04.843Z,4.20
2017-12-27T01:01:07.414Z,4.20
2017-12-27T01:02:09.968Z,4.30
2017-12-27T01:03:13.219Z,4.30
2017-12-27T01:04:15.780Z,4.30
2017-12-27T01:05:18.426Z,4.30
2017-12-27T01:06:20.913Z,4.30
2017-12-27T01:07:23.447Z,4.40
2017-12-27T01:08:25.947Z,4.30
2017-12-27T01:09:28.441Z,4.40
2017-12-27T01:10:30.961Z,4.40
2017-12-27T01:11:33.462Z,4.40
2017-12-27T01:12:35.970Z,4.40
2017-12-27T01:13:38.472Z,4.40
2017-12-27T01:14:40.950Z,4.40
2017-12-27T01:15:43.450Z,4.40
2017-12-27T01:16:45.929Z,4.40
2017-12-27T01:17:48.461Z,4.40
2017-12-27T01:18:50.970Z,4.40
2017-12-27T01:19:53.448Z,4.40
2017-12-27T01:20:55.924Z,4.40
2017-12-27T01:21:58.458Z,4.50
2017-12-27T01:23:00.947Z,4.50
2017-12-27T01:24:03.437Z,4.50
2017-12-27T01:25:05.932Z,4.50
2017-12-27T01:26:09.180Z,4.50
2017-12-27T01:27:11.680Z,4.50
2017-12-27T01:28:14.922Z,4.50
2017-12-27T01:29:17.429Z,4.50
2017-12-27T01:30:19.923Z,4.50
2017-12-27T01:31:22.415Z,4.50
2017-12-27T01:32:24.897Z,4.40
2017-12-27T01:33:27.419Z,4.40
2017-12-27T01:34:30.680Z,4.40
2017-12-27T01:35:33.173Z,4.40
2017-12-27T01:36:36.461Z,4.30
2017-12-27T01:37:38.960Z,4.30
2017-12-27T01:38:41.481Z,4.30
2017-12-27T01:39:44.020Z,4.20
2017-12-27T01:40:46.521Z,4.20
2017-12-27T01:41:49.025Z,4.20
2017-12-27T01:42:51.518Z,4.10
2017-12-27T01:43:54.007Z,4.10
2017-12-27T01:44:56.511Z,4.10
2017-12-27T01:45:59.115Z,4.10
2017-12-27T01:47:11.626Z,4.10
2017-12-27T01:48:14.116Z,4.10
2017-12-27T01:49:16.684Z,4.00
2017-12-27T01:50:19.938Z,4.00
2017-12-27T01:51:23.185Z,4.00
2017-12-27T01:52:25.676Z,4.00
2017-12-27T01:53:28.168Z,4.00
2017-12-27T01:54:31.433Z,4.00
2017-12-27T01:55:33.952Z,4.00
2017-12-27T01:56:36.439Z,4.00
2017-12-27T01:57:38.945Z,3.90
2017-12-27T01:58:41.446Z,3.90
2017-12-27T01:59:43.951Z,4.00
2017-12-27T02:00:46.442Z,4.00
2017-12-27T02:01:48.930Z,4.00
2017-12-27T02:02:51.422Z,3.90
2017-12-27T02:03:54.045Z,4.00
2017-12-27T02:04:56.536Z,3.90
2017-12-27T02:05:59.068Z,3.90
2017-12-27T02:07:01.584Z,3.90
2017-12-27T02:08:04.089Z,3.90
2017-12-27T02:09:06.576Z,3.90
2017-12-27T02:10:09.056Z,3.90
2017-12-27T02:11:11.566Z,3.90
2017-12-27T02:12:14.072Z,3.90
2017-12-27T02:13:16.555Z,4.00
2017-12-27T02:14:19.047Z,4.00
2017-12-27T02:15:21.567Z,4.00
2017-12-27T02:16:24.067Z,4.00
2017-12-27T02:17:26.583Z,4.00
2017-12-27T02:18:29.840Z,4.00
2017-12-27T02:19:32.331Z,4.00
2017-12-27T02:20:34.825Z,4.00
2017-12-27T02:21:38.140Z,3.90
2017-12-27T02:22:40.655Z,3.90
2017-12-27T02:23:43.132Z,4.00
2017-12-27T02:24:45.626Z,3.90
2017-12-27T02:25:48.885Z,4.00
2017-12-27T02:26:51.391Z,4.00
2017-12-27T02:27:53.904Z,4.00
2017-12-27T02:28:56.409Z,4.00
2017-12-27T02:29:58.941Z,4.10
2017-12-27T02:31:01.819Z,4.10
2017-12-27T02:32:04.309Z,4.10
2017-12-27T02:33:06.834Z,4.10
2017-12-27T02:34:09.366Z,4.20
2017-12-27T02:35:11.844Z,4.20
2017-12-27T02:36:15.098Z,4.20
2017-12-27T02:37:17.591Z,4.20
2017-12-27T02:38:33.556Z,4.30
2017-12-27T02:41:27.764Z,4.40
2017-12-27T02:42:30.277Z,4.40
2017-12-27T02:43:32.766Z,4.40
2017-12-27T02:44:35.320Z,4.50
2017-12-27T02:45:37.807Z,4.50
2017-12-27T02:46:40.308Z,4.50
2017-12-27T02:47:42.837Z,4.50
2017-12-27T02:49:52.644Z,4.60
2017-12-27T02:50:55.261Z,4.60
2017-12-27T02:51:57.751Z,4.60
2017-12-27T02:53:00.257Z,4.60
2017-12-27T02:54:02.768Z,4.60
2017-12-27T02:55:05.241Z,4.70
2017-12-27T02:56:07.728Z,4.70
2017-12-27T02:57:10.253Z,4.60
2017-12-27T02:58:13.512Z,4.60
2017-12-27T02:59:16.006Z,4.60
2017-12-27T03:00:19.256Z,4.70
2017-12-27T03:01:21.752Z,4.70
2017-12-27T03:02:24.291Z,4.70
2017-12-27T03:03:26.785Z,4.70
2017-12-27T03:04:29.291Z,4.80
2017-12-27T03:05:31.806Z,4.80
2017-12-27T03:06:34.297Z,4.80
2017-12-27T03:07:36.787Z,4.90
2017-12-27T03:08:40.052Z,4.90
2017-12-27T03:09:42.538Z,4.90
2017-12-27T03:10:45.019Z,4.90
2017-12-27T03:11:48.288Z,5.00
2017-12-27T03:12:50.775Z,5.00
2017-12-27T03:13:54.036Z,5.00
2017-12-27T03:14:56.518Z,5.00
2017-12-27T03:15:59.021Z,5.00
2017-12-27T03:17:01.521Z,5.00
2017-12-27T03:18:03.992Z,5.10
2017-12-27T03:19:06.509Z,5.00
2017-12-27T03:20:09.014Z,5.10
2017-12-27T03:21:11.504Z,5.10
2017-12-27T03:22:13.984Z,5.10
2017-12-27T03:23:16.494Z,5.10
2017-12-27T03:24:19.735Z,5.10
2017-12-27T03:25:22.243Z,5.10
2017-12-27T03:26:24.731Z,5.10
2017-12-27T03:27:27.223Z,5.10
2017-12-27T03:28:29.721Z,5.10
2017-12-27T03:29:32.201Z,5.10
2017-12-27T03:30:34.693Z,5.10
2017-12-27T03:31:37.209Z,5.10
2017-12-27T03:32:39.695Z,5.10
2017-12-27T03:33:42.190Z,5.20
2017-12-27T03:34:44.673Z,5.20
2017-12-27T03:35:47.920Z,5.20
2017-12-27T03:36:50.414Z,5.20
2017-12-27T03:37:52.907Z,5.20
2017-12-27T03:38:56.172Z,5.20
2017-12-27T03:39:58.662Z,5.20
2017-12-27T03:41:01.969Z,5.20
2017-12-27T03:42:04.435Z,5.20
2017-12-27T03:43:06.916Z,5.20
2017-12-27T03:44:09.419Z,5.30
2017-12-27T03:45:11.902Z,5.30
2017-12-27T03:46:14.386Z,5.30
2017-12-27T03:47:16.879Z,5.30
2017-12-27T03:48:20.153Z,5.30
2017-12-27T03:49:23.396Z,5.30
2017-12-27T03:50:25.876Z,5.30
2017-12-27T03:51:28.370Z,5.30
2017-12-27T03:52:30.844Z,5.30
2017-12-27T03:53:33.339Z,5.30
2017-12-27T03:54:35.873Z,5.40
2017-12-27T03:55:38.351Z,5.40
2017-12-27T03:56:40.838Z,5.40
2017-12-27T03:57:44.098Z,5.40
2017-12-27T03:58:48.111Z,5.30
2017-12-27T03:59:50.596Z,5.40
2017-12-27T04:00:53.869Z,5.40
2017-12-27T04:01:56.367Z,5.30
2017-12-27T04:02:59.610Z,5.40
2017-12-27T04:04:02.102Z,5.40
2017-12-27T04:05:05.357Z,5.40
2017-12-27T04:06:07.910Z,5.40
2017-12-27T04:07:10.458Z,5.40
2017-12-27T04:08:13.719Z,5.40
2017-12-27T04:09:16.985Z,5.40
2017-12-27T04:10:19.470Z,5.40
2017-12-27T04:11:21.943Z,5.40
2017-12-27T04:12:24.433Z,5.40
2017-12-27T04:13:27.706Z,5.50
2017-12-27T04:14:30.968Z,5.50
2017-12-27T04:15:33.463Z,5.40
2017-12-27T04:16:35.938Z,5.50
2017-12-27T04:17:39.203Z,5.50
2017-12-27T04:18:41.698Z,5.50
2017-12-27T04:19:44.954Z,5.50
2017-12-27T04:20:47.448Z,5.50
2017-12-27T04:21:50.695Z,5.50
2017-12-27T04:22:53.203Z,5.50
2017-12-27T04:23:55.730Z,5.50
2017-12-27T04:24:58.277Z,5.60
2017-12-27T04:26:00.781Z,5.50
2017-12-27T04:27:03.275Z,5.60
2017-12-27T04:28:05.777Z,5.60
2017-12-27T04:29:09.048Z,5.60
2017-12-27T04:30:11.534Z,5.60
2017-12-27T04:31:14.822Z,5.60
2017-12-27T04:32:18.069Z,5.60
2017-12-27T04:33:20.564Z,5.60
2017-12-27T04:34:23.073Z,5.60
2017-12-27T04:35:25.569Z,5.60
2017-12-27T04:36:28.073Z,5.60
2017-12-27T04:37:30.557Z,5.60
2017-12-27T04:38:33.801Z,5.60
2017-12-27T04:39:36.291Z,5.60
2017-12-27T04:40:38.786Z,5.60
2017-12-27T04:41:42.057Z,5.60
2017-12-27T04:42:45.324Z,5.60
2017-12-27T04:43:47.809Z,5.50
2017-12-27T04:44:50.286Z,5.60
2017-12-27T04:45:53.548Z,5.60
2017-12-27T04:46:56.022Z,5.60
2017-12-27T04:47:58.501Z,5.60
2017-12-27T04:49:00.987Z,5.50
2017-12-27T04:50:04.273Z,5.50
2017-12-27T04:51:07.524Z,5.60
2017-12-27T04:52:10.017Z,5.50
2017-12-27T04:53:14.014Z,5.60
2017-12-27T04:54:16.505Z,5.60
2017-12-27T04:55:19.909Z,5.60
2017-12-27T04:56:23.191Z,5.60
2017-12-27T04:57:26.447Z,5.60
2017-12-27T04:58:28.932Z,5.60
2017-12-27T04:59:31.412Z,5.60
2017-12-27T05:00:34.676Z,5.50
2017-12-27T05:01:37.168Z,5.50
2017-12-27T05:02:39.656Z,5.60
2017-12-27T05:03:42.913Z,5.60
2017-12-27T05:04:45.398Z,5.50
2017-12-27T05:05:48.677Z,5.50
2017-12-27T05:06:51.161Z,5.50
2017-12-27T05:07:54.402Z,5.60
2017-12-27T05:08:56.885Z,5.50
2017-12-27T05:09:59.376Z,5.50
2017-12-27T05:11:01.887Z,5.50
2017-12-27T05:12:04.410Z,5.50
2017-12-27T05:13:06.922Z,5.50
2017-12-27T05:14:09.524Z,5.50
2017-12-27T05:15:12.012Z,5.50
2017-12-27T05:16:14.517Z,5.50
2017-12-27T05:17:17.786Z,5.60
2017-12-27T05:18:20.292Z,5.50
2017-12-27T05:19:22.787Z,5.60
2017-12-27T05:20:25.274Z,5.60
2017-12-27T05:21:27.903Z,5.60
2017-12-27T05:22:30.407Z,5.60
2017-12-27T05:23:32.945Z,5.60
2017-12-27T05:24:35.423Z,5.60
2017-12-27T05:25:37.936Z,5.70
2017-12-27T05:26:40.434Z,5.60
2017-12-27T05:27:43.694Z,5.80
2017-12-27T05:28:46.239Z,5.70
2017-12-27T05:29:48.739Z,5.80
2017-12-27T05:30:51.227Z,5.80
2017-12-27T05:31:53.736Z,5.80
2017-12-27T05:32:56.235Z,5.80
2017-12-27T05:33:58.736Z,5.80
2017-12-27T05:35:01.997Z,5.90
2017-12-27T05:36:04.510Z,5.90
2017-12-27T05:37:07.753Z,5.90
2017-12-27T05:38:10.244Z,5.80
2017-12-27T05:39:12.749Z,5.90
2017-12-27T05:40:15.241Z,5.90
2017-12-27T05:41:17.739Z,5.90
2017-12-27T05:42:20.231Z,5.90
2017-12-27T05:43:22.744Z,5.90
2017-12-27T05:44:25.260Z,5.80
2017-12-27T05:45:27.837Z,5.80
2017-12-27T05:46:30.335Z,5.80
2017-12-27T05:47:33.583Z,5.80
2017-12-27T05:48:36.070Z,5.80
2017-12-27T05:49:38.777Z,5.80
2017-12-27T05:50:42.661Z,5.80
2017-12-27T05:51:45.142Z,5.80
2017-12-27T05:52:48.401Z,5.80
2017-12-27T05:53:50.924Z,5.80
2017-12-27T05:54:53.429Z,5.90
2017-12-27T05:55:55.925Z,5.90
2017-12-27T05:56:58.409Z,5.90
2017-12-27T05:58:01.698Z,5.90
2017-12-27T05:59:04.971Z,5.90
2017-12-27T06:00:07.451Z,5.90
2017-12-27T06:01:10.049Z,5.90
2017-12-27T06:02:12.545Z,5.90
2017-12-27T06:03:15.052Z,6.00
2017-12-27T06:04:17.555Z,5.90
2017-12-27T06:05:20.072Z,6.00
2017-12-27T06:06:22.571Z,6.00
2017-12-27T06:07:25.814Z,6.10
2017-12-27T06:08:28.295Z,6.10
2017-12-27T06:09:30.779Z,6.10
2017-12-27T06:10:33.284Z,6.20
2017-12-27T06:11:36.531Z,6.20
2017-12-27T06:12:39.029Z,6.20
2017-12-27T06:13:42.282Z,6.30
2017-12-27T06:14:44.794Z,6.30
2017-12-27T06:15:48.038Z,6.40
2017-12-27T06:16:50.524Z,6.40
2017-12-27T06:17:53.036Z,6.40
2017-12-27T06:18:55.526Z,6.40
2017-12-27T06:19:58.058Z,6.40
2017-12-27T06:21:01.308Z,6.30
2017-12-27T06:22:03.813Z,6.30
2017-12-27T06:23:07.067Z,6.30
2017-12-27T06:24:09.576Z,6.30
2017-12-27T06:25:12.852Z,6.30
2017-12-27T06:26:15.335Z,6.30
2017-12-27T06:27:18.623Z,6.40
2017-12-27T06:28:21.881Z,6.40
2017-12-27T06:29:24.391Z,6.40
2017-12-27T06:30:27.679Z,6.40
2017-12-27T06:31:30.961Z,6.40
2017-12-27T06:32:34.265Z,6.40
2017-12-27T06:33:36.747Z,6.40
2017-12-27T06:34:39.247Z,6.40
2017-12-27T06:35:41.750Z,6.40
2017-12-27T06:36:44.241Z,6.40
2017-12-27T06:37:46.730Z,6.40
2017-12-27T06:38:49.229Z,6.50
2017-12-27T06:39:51.739Z,6.50
2017-12-27T06:40:55.347Z,6.40
2017-12-27T06:41:58.643Z,6.30
2017-12-27T06:43:01.149Z,6.40
2017-12-27T06:44:03.661Z,6.30
2017-12-27T06:45:06.161Z,6.30
2017-12-27T06:46:09.479Z,6.40
2017-12-27T06:47:12.085Z,6.40
2017-12-27T06:48:14.612Z,6.40
2017-12-27T06:49:17.106Z,6.40
2017-12-27T06:50:19.609Z,6.40
2017-12-27T06:51:22.088Z,6.40
2017-12-27T06:52:25.364Z,6.40
2017-12-27T06:53:27.859Z,6.40
2017-12-27T06:54:31.107Z,6.40
2017-12-27T06:55:35.102Z,6.30
2017-12-27T06:56:37.592Z,6.30
2017-12-27T06:57:40.085Z,6.30
2017-12-27T06:58:43.326Z,6.20
2017-12-27T06:59:45.824Z,6.20
2017-12-27T07:00:48.317Z,6.20
2017-12-27T07:01:51.571Z,6.20
2017-12-27T07:02:54.841Z,6.20
2017-12-27T07:03:57.331Z,6.20
2017-12-27T07:04:59.810Z,6.20
2017-12-27T07:06:02.296Z,6.20
2017-12-27T07:07:05.580Z,6.50
2017-12-27T07:08:08.063Z,6.50
2017-12-27T07:09:11.493Z,6.40
2017-12-27T07:10:13.999Z,6.40
2017-12-27T07:11:17.073Z,6.40
2017-12-27T07:12:19.568Z,6.60
2017-12-27T07:13:22.824Z,6.50
2017-12-27T07:14:25.313Z,6.50
2017-12-27T07:15:27.847Z,6.50
2017-12-27T07:16:30.330Z,6.40
2017-12-27T07:17:32.833Z,6.50
2017-12-27T07:18:35.333Z,6.60
2017-12-27T07:19:37.836Z,6.60
2017-12-27T07:20:40.319Z,6.40
2017-12-27T07:21:42.823Z,6.40
2017-12-27T07:22:46.095Z,6.20
2017-12-27T07:23:49.350Z,6.20
2017-12-27T07:24:51.851Z,6.20
2017-12-27T07:25:54.344Z,6.20
2017-12-27T07:26:57.639Z,6.10
2017-12-27T07:28:00.129Z,6.10
2017-12-27T07:29:02.622Z,6.10
2017-12-27T07:30:05.104Z,6.10
2017-12-27T07:31:07.613Z,6.10
2017-12-27T07:32:10.975Z,6.00
2017-12-27T07:33:13.493Z,6.00
2017-12-27T07:34:15.991Z,6.00
2017-12-27T07:35:18.478Z,6.00
2017-12-27T07:36:20.978Z,6.00
2017-12-27T07:37:24.263Z,6.00
2017-12-27T07:38:27.540Z,6.00
2017-12-27T07:39:30.791Z,6.00
2017-12-27T07:40:33.291Z,6.00
2017-12-27T07:41:35.785Z,6.00
2017-12-27T07:42:39.039Z,6.00
2017-12-27T07:43:41.548Z,6.00
2017-12-27T07:44:44.807Z,6.00
2017-12-27T07:45:47.299Z,6.00
2017-12-27T07:46:50.556Z,6.00
2017-12-27T07:47:53.829Z,6.00
2017-12-27T07:48:56.331Z,6.00
2017-12-27T07:49:59.586Z,6.00
2017-12-27T07:51:02.077Z,6.00
2017-12-27T07:52:04.586Z,6.00
2017-12-27T07:53:07.079Z,6.00
2017-12-27T07:54:12.217Z,6.00
2017-12-27T07:55:15.638Z,6.00
2017-12-27T07:56:18.320Z,6.00
2017-12-27T07:57:21.549Z,6.00
2017-12-27T07:58:24.016Z,6.00
2017-12-27T07:59:26.517Z,6.00
2017-12-27T08:00:29.017Z,6.00
2017-12-27T08:01:32.334Z,5.90
2017-12-27T08:02:34.851Z,5.90
2017-12-27T08:03:37.347Z,5.90
2017-12-27T08:04:40.593Z,6.00
2017-12-27T08:05:43.063Z,6.00
2017-12-27T08:06:45.551Z,5.90
2017-12-27T08:07:48.042Z,5.90
2017-12-27T08:08:50.516Z,5.90
2017-12-27T08:09:52.995Z,5.90
2017-12-27T08:10:56.240Z,5.90
2017-12-27T08:11:58.820Z,5.90
2017-12-27T08:13:01.295Z,5.90
2017-12-27T08:14:03.931Z,5.90
2017-12-27T08:15:06.423Z,5.80
2017-12-27T08:16:08.906Z,5.80
2017-12-27T08:17:11.658Z,5.80
2017-12-27T08:18:14.886Z,5.80
2017-12-27T08:19:17.551Z,5.80
2017-12-27T08:33:20.076Z,5.80
2017-12-27T08:34:22.560Z,5.70
2017-12-27T08:35:25.820Z,5.70
2017-12-27T08:36:28.293Z,5.70
2017-12-27T08:37:30.829Z,5.80
2017-12-27T08:38:33.322Z,5.80
2017-12-27T08:39:35.800Z,5.80
2017-12-27T08:40:38.294Z,5.80
2017-12-27T08:41:40.761Z,5.90
2017-12-27T08:42:43.269Z,5.80
2017-12-27T08:43:45.748Z,5.80
2017-12-27T08:44:48.233Z,5.90
2017-12-27T08:45:52.395Z,5.90
2017-12-27T08:46:55.653Z,5.90
2017-12-27T08:47:58.151Z,5.80
2017-12-27T08:49:00.624Z,5.90
2017-12-27T08:50:03.900Z,5.90
2017-12-27T08:51:06.386Z,5.80
2017-12-27T08:52:09.642Z,5.90
2017-12-27T08:53:14.113Z,5.90
2017-12-27T08:54:16.606Z,5.90
2017-12-27T08:55:19.073Z,5.90
2017-12-27T08:56:21.553Z,5.90
2017-12-27T08:57:24.060Z,5.90
2017-12-27T08:58:26.547Z,5.90
2017-12-27T08:59:29.836Z,6.00
2017-12-27T09:00:33.072Z,6.00
2017-12-27T09:01:35.616Z,6.00
2017-12-27T09:02:38.121Z,6.00
2017-12-27T09:03:40.589Z,6.00
2017-12-27T09:04:43.087Z,6.10
2017-12-27T09:05:45.550Z,6.00
2017-12-27T09:06:48.046Z,6.10
2017-12-27T09:07:51.346Z,6.10
2017-12-27T09:08:54.579Z,6.10
2017-12-27T09:09:57.052Z,6.10
2017-12-27T09:10:59.550Z,6.10
2017-12-27T09:12:02.022Z,6.20
2017-12-27T09:13:05.271Z,6.20
2017-12-27T09:14:08.430Z,6.20
2017-12-27T09:15:12.611Z,6.20
2017-12-27T09:16:15.114Z,6.30
2017-12-27T09:17:17.610Z,6.20
2017-12-27T09:18:20.136Z,6.20
2017-12-27T09:19:22.647Z,6.30
2017-12-27T09:20:25.142Z,6.30
2017-12-27T09:21:27.612Z,6.30
2017-12-27T09:22:30.091Z,6.30
2017-12-27T09:23:33.368Z,6.30
2017-12-27T09:24:35.846Z,6.40
2017-12-27T09:25:38.329Z,6.40
2017-12-27T09:26:40.816Z,6.40
2017-12-27T09:27:43.286Z,6.40
2017-12-27T09:28:45.782Z,6.40
2017-12-27T09:29:48.918Z,6.40
2017-12-27T09:30:51.421Z,6.40
2017-12-27T09:31:53.916Z,6.30
2017-12-27T09:32:56.402Z,6.30
2017-12-27T09:33:58.923Z,6.30
2017-12-27T09:35:03.726Z,6.40
2017-12-27T09:36:06.226Z,6.30
2017-12-27T09:37:08.697Z,6.30
2017-12-27T09:38:11.335Z,6.30
2017-12-27T09:39:14.619Z,6.30
2017-12-27T09:40:17.114Z,6.40
2017-12-27T09:41:19.604Z,6.40
2017-12-27T09:42:22.902Z,6.40
2017-12-27T09:43:25.389Z,6.40
2017-12-27T09:44:27.856Z,6.40
2017-12-27T09:45:30.368Z,6.50
2017-12-27T09:46:32.863Z,6.50
2017-12-27T09:47:35.406Z,6.50
2017-12-27T09:48:37.883Z,6.50
2017-12-27T09:49:40.360Z,6.50
2017-12-27T09:50:42.833Z,6.60
2017-12-27T09:51:45.340Z,6.60
2017-12-27T09:52:48.054Z,6.60
2017-12-27T09:53:50.527Z,6.60
2017-12-27T09:54:53.010Z,6.70
2017-12-27T09:55:55.487Z,6.70
2017-12-27T09:56:57.985Z,6.70
2017-12-27T09:58:00.485Z,6.70
2017-12-27T09:59:02.973Z,6.70
2017-12-27T10:00:05.468Z,6.70
2017-12-27T10:01:07.968Z,6.70
2017-12-27T10:02:11.422Z,6.60
2017-12-27T10:03:14.683Z,6.60
2017-12-27T10:04:17.204Z,6.50
2017-12-27T10:05:20.472Z,6.50
2017-12-27T10:06:22.946Z,6.50
2017-12-27T10:07:25.426Z,6.60
2017-12-27T10:08:28.667Z,6.70
2017-12-27T10:09:31.128Z,6.60
2017-12-27T10:10:33.658Z,6.60
2017-12-27T10:11:36.916Z,6.70
2017-12-27T10:12:39.410Z,6.70
2017-12-27T10:13:41.897Z,6.60
2017-12-27T10:14:45.156Z,6.60
2017-12-27T10:15:47.656Z,6.60
2017-12-27T10:16:50.903Z,6.60
2017-12-27T10:17:53.412Z,6.60
2017-12-27T10:18:57.121Z,6.60
2017-12-27T10:19:59.627Z,6.60
2017-12-27T10:21:02.104Z,6.60
2017-12-27T10:22:04.600Z,6.60
2017-12-27T10:23:07.075Z,6.60
2017-12-27T10:24:10.538Z,6.70
2017-12-27T10:25:13.186Z,6.70
2017-12-27T10:26:15.664Z,6.70
2017-12-27T10:27:18.146Z,6.70
2017-12-27T10:28:20.638Z,6.70
2017-12-27T10:29:23.131Z,6.70
2017-12-27T10:30:26.391Z,6.60
2017-12-27T10:31:28.852Z,6.60
2017-12-27T10:32:31.339Z,6.60
2017-12-27T10:33:33.841Z,6.60
2017-12-27T10:34:37.087Z,6.70
2017-12-27T10:35:39.594Z,6.70
2017-12-27T10:36:42.832Z,6.70
2017-12-27T10:37:45.575Z,6.70
2017-12-27T10:38:48.048Z,6.70
2017-12-27T10:39:50.532Z,6.70
2017-12-27T10:40:53.085Z,6.70
2017-12-27T10:41:56.972Z,6.70
2017-12-27T10:43:00.208Z,6.80
2017-12-27T10:44:02.700Z,6.70
2017-12-27T10:45:06.012Z,6.70
2017-12-27T10:46:08.545Z,6.70
2017-12-27T10:47:11.290Z,6.80
2017-12-27T10:48:14.547Z,6.70
2017-12-27T10:49:17.102Z,6.70
2017-12-27T10:50:19.616Z,6.70
2017-12-27T10:51:22.113Z,6.70
2017-12-27T10:52:24.584Z,6.70
2017-12-27T10:53:27.074Z,6.70
2017-12-27T10:54:29.566Z,6.70
2017-12-27T10:55:32.089Z,6.70
2017-12-27T10:56:35.310Z,6.80
2017-12-27T10:57:37.792Z,6.80
2017-12-27T10:58:40.289Z,6.80
2017-12-27T10:59:43.534Z,6.80
2017-12-27T11:00:46.004Z,6.80
2017-12-27T11:01:48.502Z,6.80
2017-12-27T11:02:51.104Z,6.80
2017-12-27T11:03:53.666Z,6.80
2017-12-27T11:04:56.148Z,6.80
2017-12-27T11:05:58.633Z,6.80
2017-12-27T11:07:01.150Z,6.70
2017-12-27T11:08:03.652Z,6.70
2017-12-27T11:09:06.149Z,6.70
2017-12-27T11:10:08.644Z,6.70
2017-12-27T11:11:11.232Z,6.70
2017-12-27T11:12:14.348Z,6.70
2017-12-27T11:13:16.860Z,6.70
2017-12-27T11:14:19.344Z,6.70
2017-12-27T11:15:21.838Z,6.70
2017-12-27T11:16:25.096Z,6.70
2017-12-27T11:17:27.585Z,6.70
2017-12-27T11:18:30.078Z,6.80
2017-12-27T11:19:33.356Z,6.80
2017-12-27T11:20:35.872Z,6.80
2017-12-27T11:21:38.363Z,6.80
2017-12-27T11:22:40.843Z,6.80
2017-12-27T11:23:43.356Z,6.80
2017-12-27T11:24:46.613Z,6.80
2017-12-27T11:25:49.082Z,6.80
2017-12-27T11:26:51.572Z,6.80
2017-12-27T11:27:54.834Z,6.90
2017-12-27T11:28:57.325Z,6.90
2017-12-27T11:30:00.061Z,6.90
2017-12-27T11:31:02.561Z,6.80
2017-12-27T11:32:05.086Z,6.80
2017-12-27T11:33:07.552Z,6.80
2017-12-27T11:34:10.175Z,6.80
2017-12-27T11:35:12.737Z,6.80
2017-12-27T11:36:15.217Z,6.80
2017-12-27T11:37:17.706Z,6.80
2017-12-27T11:38:21.702Z,6.90
2017-12-27T11:39:24.224Z,6.90
2017-12-27T11:40:26.692Z,6.90
2017-12-27T11:41:29.172Z,6.90
2017-12-27T11:42:31.643Z,6.90
2017-12-27T11:43:34.909Z,6.90
2017-12-27T11:44:37.446Z,6.90
2017-12-27T11:45:39.915Z,6.90
2017-12-27T11:46:43.157Z,7.00
2017-12-27T11:47:45.709Z,7.00
2017-12-27T11:48:48.207Z,7.10
2017-12-27T11:49:50.729Z,7.10
2017-12-27T11:50:53.993Z,7.10
2017-12-27T11:51:56.467Z,7.00
2017-12-27T11:52:58.965Z,7.10
2017-12-27T11:54:01.464Z,7.10
2017-12-27T11:55:04.781Z,7.00
2017-12-27T11:57:19.381Z,7.00
2017-12-27T11:58:21.880Z,7.00
2017-12-27T11:59:24.366Z,6.90
2017-12-27T12:00:26.857Z,6.90
2017-12-27T12:01:29.401Z,6.90
2017-12-27T12:02:31.903Z,6.90
2017-12-27T12:03:34.383Z,6.90
2017-12-27T12:04:37.646Z,7.00
2017-12-27T12:05:40.142Z,7.00
2017-12-27T12:06:43.433Z,6.90
2017-12-27T12:07:46.674Z,6.90
2017-12-27T12:08:49.155Z,6.90
2017-12-27T12:09:51.833Z,6.90
2017-12-27T12:10:55.099Z,6.90
2017-12-27T12:11:57.636Z,6.90
2017-12-27T12:13:00.140Z,7.00
2017-12-27T12:14:02.634Z,7.00
2017-12-27T12:15:05.137Z,7.00
2017-12-27T12:16:08.405Z,6.90
2017-12-27T12:17:10.995Z,6.90
2017-12-27T12:18:14.355Z,6.90
2017-12-27T12:19:16.850Z,7.00
2017-12-27T12:20:20.119Z,7.10
2017-12-27T12:21:22.630Z,7.00
2017-12-27T12:22:25.160Z,7.10
2017-12-27T12:23:28.432Z,7.00
2017-12-27T12:24:30.930Z,7.00
2017-12-27T12:25:34.198Z,7.00
2017-12-27T12:26:36.735Z,7.00
2017-12-27T12:27:39.251Z,7.00
2017-12-27T12:28:42.543Z,7.00
2017-12-27T12:29:45.815Z,7.00
2017-12-27T12:30:48.311Z,7.00
2017-12-27T12:31:51.585Z,6.90
2017-12-27T12:32:54.879Z,6.90
2017-12-27T12:33:57.385Z,6.90
2017-12-27T12:34:59.887Z,6.90
2017-12-27T12:36:02.534Z,6.90
2017-12-27T12:37:05.089Z,6.80
2017-12-27T12:38:07.631Z,6.90
2017-12-27T12:39:10.376Z,6.90
2017-12-27T12:40:12.970Z,6.90
2017-12-27T12:41:16.299Z,6.80
2017-12-27T12:42:18.831Z,6.80
2017-12-27T12:43:22.119Z,6.90
2017-12-27T12:44:24.615Z,6.90
2017-12-27T12:45:27.876Z,6.90
2017-12-27T12:46:31.140Z,6.90
2017-12-27T12:47:33.682Z,6.90
2017-12-27T12:48:36.217Z,6.80
2017-12-27T12:49:38.714Z,6.90
2017-12-27T12:50:41.219Z,6.90
2017-12-27T12:51:43.730Z,6.90
2017-12-27T12:52:46.992Z,7.00
2017-12-27T12:53:49.771Z,6.90
2017-12-27T12:54:52.325Z,7.00
2017-12-27T12:55:54.829Z,7.00
2017-12-27T12:56:57.327Z,7.10
2017-12-27T12:57:59.834Z,7.10
2017-12-27T12:59:02.353Z,7.10
2017-12-27T13:00:05.617Z,7.10
2017-12-27T13:01:08.885Z,7.10
2017-12-27T13:02:11.656Z,7.10
2017-12-27T13:03:15.741Z,7.10
2017-12-27T13:04:18.264Z,7.10
2017-12-27T13:05:20.771Z,7.10
2017-12-27T13:06:23.260Z,7.10
2017-12-27T13:07:25.820Z,7.10
2017-12-27T13:08:29.107Z,7.10
2017-12-27T13:09:31.653Z,7.10
2017-12-27T13:10:34.948Z,7.20
2017-12-27T13:11:38.203Z,7.20
2017-12-27T13:12:40.751Z,7.20
2017-12-27T13:13:43.268Z,7.20
2017-12-27T13:14:46.552Z,7.30
2017-12-27T13:15:49.874Z,7.20
2017-12-27T13:16:52.389Z,7.30
2017-12-27T13:17:54.882Z,7.20
2017-12-27T13:18:58.154Z,7.30
2017-12-27T13:20:00.722Z,7.30
2017-12-27T13:21:03.244Z,7.30
2017-12-27T13:22:05.797Z,7.30
2017-12-27T13:23:09.078Z,7.30
2017-12-27T13:24:12.554Z,7.30
2017-12-27T13:25:15.050Z,7.20
2017-12-27T13:26:18.332Z,7.30
2017-12-27T13:27:21.640Z,7.30
2017-12-27T13:28:24.163Z,7.30
2017-12-27T13:29:26.657Z,7.30
2017-12-27T13:30:29.929Z,7.30
2017-12-27T13:31:32.422Z,7.30
2017-12-27T13:32:36.165Z,7.30
2017-12-27T13:33:38.664Z,7.30
2017-12-27T13:34:41.216Z,7.40
2017-12-27T13:35:43.722Z,7.40
2017-12-27T13:36:46.236Z,7.40
2017-12-27T13:37:48.915Z,7.50
2017-12-27T13:38:51.406Z,7.50
2017-12-27T13:39:54.022Z,7.60
2017-12-27T13:40:56.523Z,7.50
2017-12-27T13:41:59.056Z,7.50
2017-12-27T13:43:01.560Z,7.50
2017-12-27T13:44:04.816Z,7.50
2017-12-27T13:45:08.098Z,7.50
2017-12-27T13:46:10.713Z,7.50
2017-12-27T13:47:13.516Z,7.50
2017-12-27T13:48:16.011Z,7.50
2017-12-27T13:49:18.519Z,7.50
2017-12-27T13:50:21.033Z,7.40
2017-12-27T13:51:23.683Z,7.40
2017-12-27T13:52:26.221Z,7.40
2017-12-27T13:53:29.478Z,7.30
2017-12-27T13:54:31.976Z,7.30
2017-12-27T13:55:35.432Z,7.30
2017-12-27T13:56:37.961Z,7.30
2017-12-27T13:57:40.480Z,7.30
2017-12-27T13:58:43.020Z,7.30
2017-12-27T13:59:45.514Z,7.30
2017-12-27T14:00:48.034Z,7.40
2017-12-27T14:01:51.313Z,7.30
2017-12-27T14:02:54.600Z,7.40
2017-12-27T14:03:57.864Z,7.30
2017-12-27T14:05:00.365Z,7.30
2017-12-27T14:06:03.637Z,7.30
2017-12-27T14:07:06.153Z,7.30
2017-12-27T14:08:08.701Z,7.20
2017-12-27T14:09:12.023Z,7.30
2017-12-27T14:10:14.555Z,7.20
2017-12-27T14:11:17.834Z,7.30
2017-12-27T14:12:21.097Z,7.30
2017-12-27T14:13:23.628Z,7.30
2017-12-27T14:14:26.124Z,7.30
2017-12-27T14:15:28.642Z,7.30
2017-12-27T14:16:31.168Z,7.30
2017-12-27T14:17:33.721Z,7.40